Time;durP1;ratioP1;P1;durP2;ratioP2;P2;SDS_P1;SDS_P2;PMS_P1;PMS_P2;Temp;Humidity;BMP_temperature;BMP_pressure;BME280_temperature;BME280_humidity;BME280_pressure;Samples;Min_cycle;Max_cycle;Signal;HPM_P1;HPM_P2
2023/11/08 00:02:11;;;;;;;0.65;0.40;;;21.00;42.80;;;;;;5071698;28;20024;-56
2023/11/08 00:04:37;;;;;;;1.05;0.60;;;21.00;42.80;;;;;;5070067;28;20025;-55
2023/11/08 00:07:03;;;;;;;1.58;0.73;;;21.00;42.80;;;;;;5070771;28;20137;-56
2023/11/08 00:09:29;;;;;;;0.70;0.52;;;21.00;42.90;;;;;;5074249;28;20458;-53
2023/11/08 00:11:55;;;;;;;0.60;0.50;;;21.00;42.90;;;;;;5054710;28;20059;-54
2023/11/08 00:14:21;;;;;;;0.93;0.45;;;21.00;42.90;;;;;;5067440;28;20024;-54
2023/11/08 00:16:47;;;;;;;0.45;0.40;;;21.00;42.90;;;;;;5068242;28;20458;-57
2023/11/08 00:19:16;;;;;;;1.10;0.70;;;21.00;42.90;;;;;;5077391;28;20025;-56
2023/11/08 00:21:42;;;;;;;0.82;0.40;;;21.00;42.90;;;;;;5070640;28;20040;-55
2023/11/08 00:24:09;;;;;;;0.60;0.50;;;21.00;42.90;;;;;;5069967;28;20047;-57
2023/11/08 00:26:35;;;;;;;0.60;0.47;;;21.00;42.90;;;;;;5070018;28;20035;-56
2023/11/08 00:29:00;;;;;;;0.80;0.60;;;21.00;42.90;;;;;;5072230;28;20036;-56
2023/11/08 00:31:26;;;;;;;0.70;0.43;;;20.90;42.90;;;;;;5068384;28;20355;-55
2023/11/08 00:33:52;;;;;;;1.15;0.50;;;21.00;43.00;;;;;;5075742;28;20024;-54
2023/11/08 00:36:19;;;;;;;2.58;0.70;;;21.00;43.00;;;;;;5066524;28;20049;-55
2023/11/08 00:38:46;;;;;;;0.77;0.57;;;20.90;42.90;;;;;;5069754;28;20032;-55
2023/11/08 00:41:13;;;;;;;0.93;0.50;;;20.90;42.90;;;;;;5062747;28;20390;-51
2023/11/08 00:43:40;;;;;;;2.25;0.80;;;20.90;42.90;;;;;;5073870;28;20362;-55
2023/11/08 00:46:08;;;;;;;0.98;0.50;;;20.90;43.00;;;;;;5049903;28;20039;-55
2023/11/08 00:48:36;;;;;;;1.15;0.65;;;20.90;43.00;;;;;;5074992;28;21714;-54
2023/11/08 00:51:05;;;;;;;0.85;0.43;;;20.90;43.00;;;;;;5054925;28;20064;-53
2023/11/08 00:53:33;;;;;;;1.35;0.50;;;20.90;43.00;;;;;;5078855;28;20375;-54
2023/11/08 00:55:59;;;;;;;1.20;0.50;;;20.90;43.00;;;;;;5074893;28;20027;-55
2023/11/08 00:58:26;;;;;;;1.88;0.60;;;20.90;43.00;;;;;;5069190;28;20025;-54
2023/11/08 01:00:52;;;;;;;0.90;0.50;;;20.90;43.00;;;;;;5068472;28;20056;-55
2023/11/08 01:03:18;;;;;;;1.58;0.75;;;20.90;43.10;;;;;;5066111;28;20064;-55
2023/11/08 01:05:44;;;;;;;0.93;0.55;;;20.90;43.00;;;;;;5053493;28;20047;-56
2023/11/08 01:08:12;;;;;;;1.10;0.50;;;20.90;43.10;;;;;;5082747;28;20400;-54
2023/11/08 01:10:40;;;;;;;1.27;0.57;;;20.90;43.10;;;;;;5067872;28;20040;-55
2023/11/08 01:13:06;;;;;;;1.67;0.80;;;20.90;43.10;;;;;;5062725;28;20401;-54
2023/11/08 01:15:32;;;;;;;0.80;0.50;;;20.90;43.10;;;;;;5066529;28;20055;-53
2023/11/08 01:17:58;;;;;;;1.20;0.52;;;20.90;43.10;;;;;;5053934;28;20815;-54
2023/11/08 01:20:24;;;;;;;1.27;0.60;;;20.90;43.10;;;;;;5073814;28;20107;-54
2023/11/08 01:22:50;;;;;;;1.52;0.60;;;20.80;43.10;;;;;;5070950;28;20402;-54
2023/11/08 01:25:17;;;;;;;0.75;0.50;;;20.80;43.10;;;;;;5072772;28;20130;-56
2023/11/08 01:27:42;;;;;;;1.20;0.60;;;20.80;43.10;;;;;;5074413;28;20023;-56
2023/11/08 01:30:10;;;;;;;0.60;0.40;;;20.80;43.10;;;;;;5068117;28;20371;-55
2023/11/08 01:32:36;;;;;;;1.33;0.50;;;20.80;43.10;;;;;;5048951;28;20426;-54
2023/11/08 01:35:02;;;;;;;0.52;0.40;;;20.80;43.20;;;;;;5066895;28;20124;-57
2023/11/08 01:37:28;;;;;;;1.15;0.60;;;20.80;43.20;;;;;;5071398;28;20048;-56
2023/11/08 01:39:54;;;;;;;1.60;0.77;;;20.80;43.20;;;;;;5072013;28;20056;-57
2023/11/08 01:42:20;;;;;;;1.38;0.50;;;20.80;43.20;;;;;;5073113;28;20075;-57
2023/11/08 01:44:46;;;;;;;1.20;0.63;;;20.80;43.20;;;;;;5053416;28;20133;-56
2023/11/08 01:47:14;;;;;;;0.77;0.50;;;20.80;43.20;;;;;;5065595;28;20025;-52
2023/11/08 01:49:40;;;;;;;1.10;0.60;;;20.80;43.30;;;;;;5054134;28;20040;-55
2023/11/08 01:52:06;;;;;;;1.30;0.45;;;20.80;43.30;;;;;;5052286;28;20098;-58
2023/11/08 01:54:33;;;;;;;0.85;0.60;;;20.80;43.30;;;;;;5067365;28;20069;-56
2023/11/08 01:57:01;;;;;;;1.17;0.60;;;20.80;43.30;;;;;;5067144;28;20025;-55
2023/11/08 01:59:28;;;;;;;1.52;0.50;;;20.80;43.30;;;;;;5050129;28;20032;-54
2023/11/08 02:01:57;;;;;;;0.93;0.50;;;20.80;43.40;;;;;;5048834;28;20040;-56
2023/11/08 02:04:24;;;;;;;0.82;0.43;;;20.70;43.30;;;;;;5066823;28;20075;-54
2023/11/08 02:06:50;;;;;;;0.90;0.30;;;20.70;43.30;;;;;;5050776;28;20123;-57
2023/11/08 02:09:16;;;;;;;0.82;0.50;;;20.70;43.40;;;;;;5068046;28;20522;-55
2023/11/08 02:11:44;;;;;;;0.82;0.60;;;20.80;43.40;;;;;;5065033;28;20105;-55
2023/11/08 02:14:10;;;;;;;1.00;0.47;;;20.70;43.40;;;;;;5055461;28;20057;-55
2023/11/08 02:16:36;;;;;;;1.35;0.57;;;20.70;43.40;;;;;;5049449;28;20352;-54
2023/11/08 02:19:03;;;;;;;1.30;0.57;;;20.70;43.40;;;;;;5049713;28;20047;-57
2023/11/08 02:21:29;;;;;;;1.63;0.50;;;20.70;43.40;;;;;;5068111;28;20028;-56
2023/11/08 02:23:55;;;;;;;1.10;0.73;;;20.70;43.40;;;;;;5070437;28;20025;-55
2023/11/08 02:26:21;;;;;;;1.45;0.65;;;20.70;43.50;;;;;;5065545;28;20115;-54
2023/11/08 02:28:47;;;;;;;1.77;0.80;;;20.70;43.50;;;;;;5070042;28;20342;-56
2023/11/08 02:31:14;;;;;;;1.17;0.40;;;20.70;43.50;;;;;;5064785;28;20032;-53
2023/11/08 02:33:40;;;;;;;1.02;0.50;;;20.70;43.50;;;;;;5070167;28;20029;-55
2023/11/08 02:36:06;;;;;;;1.42;0.70;;;20.70;43.60;;;;;;5065684;28;20040;-55
2023/11/08 02:38:32;;;;;;;1.38;0.40;;;20.70;43.60;;;;;;5072886;28;20040;-54
2023/11/08 02:40:57;;;;;;;1.05;0.30;;;20.70;43.60;;;;;;5068918;28;20732;-56
2023/11/08 02:43:25;;;;;;;1.77;0.43;;;20.70;43.60;;;;;;5064975;28;20028;-56
2023/11/08 02:45:53;;;;;;;0.93;0.45;;;20.70;43.60;;;;;;5076096;28;20020;-56
2023/11/08 02:48:19;;;;;;;1.33;0.50;;;20.70;43.60;;;;;;5076136;28;20466;-52
2023/11/08 02:50:45;;;;;;;1.13;0.63;;;20.70;43.60;;;;;;5053312;28;20040;-51
2023/11/08 02:53:11;;;;;;;1.15;0.63;;;20.60;43.60;;;;;;5064612;28;20025;-53
2023/11/08 02:55:37;;;;;;;1.48;0.50;;;20.60;43.60;;;;;;5071067;28;20029;-57
2023/11/08 02:58:03;;;;;;;1.27;0.50;;;20.60;43.60;;;;;;5070206;28;20032;-55
2023/11/08 03:00:30;;;;;;;1.08;0.60;;;20.60;43.60;;;;;;5072810;28;20089;-53
2023/11/08 03:02:57;;;;;;;0.82;0.50;;;20.70;43.70;;;;;;5063080;28;20040;-57
2023/11/08 03:05:23;;;;;;;0.85;0.50;;;20.60;43.70;;;;;;5069222;28;20086;-56
2023/11/08 03:07:53;;;;;;;1.20;0.60;;;20.60;43.70;;;;;;5072555;28;20044;-55
2023/11/08 03:10:21;;;;;;;1.33;0.63;;;20.60;43.70;;;;;;5072425;28;20043;-53
2023/11/08 03:12:48;;;;;;;1.17;0.40;;;20.60;43.70;;;;;;5052273;28;20036;-53
2023/11/08 03:15:16;;;;;;;2.28;0.60;;;20.60;43.70;;;;;;5074034;28;20035;-52
2023/11/08 03:17:45;;;;;;;1.17;0.60;;;20.60;43.70;;;;;;5074608;28;20036;-56
2023/11/08 03:20:15;;;;;;;1.02;0.50;;;20.60;43.70;;;;;;5072313;28;20403;-54
2023/11/08 03:22:41;;;;;;;1.63;0.55;;;20.60;43.70;;;;;;5058442;28;20032;-52
2023/11/08 03:25:11;;;;;;;1.17;0.50;;;20.60;43.70;;;;;;5075207;28;20031;-55
2023/11/08 03:27:43;;;;;;;1.17;0.50;;;20.60;43.70;;;;;;5071800;28;20127;-56
2023/11/08 03:30:12;;;;;;;1.23;0.47;;;20.60;43.70;;;;;;5067057;28;20525;-54
2023/11/08 03:32:41;;;;;;;0.85;0.50;;;20.60;43.80;;;;;;5063582;28;20029;-53
2023/11/08 03:35:07;;;;;;;0.65;0.40;;;20.60;43.80;;;;;;5048595;28;20053;-56
2023/11/08 03:37:42;;;;;;;0.52;0.40;;;20.60;43.80;;;;;;5073227;28;20040;-57
2023/11/08 03:40:11;;;;;;;0.57;0.28;;;20.60;43.80;;;;;;5074736;28;20044;-54
2023/11/08 03:42:39;;;;;;;1.45;0.60;;;20.60;43.80;;;;;;5068806;28;20049;-54
2023/11/08 03:45:06;;;;;;;0.75;0.50;;;20.60;43.80;;;;;;5077153;28;20037;-51
2023/11/08 03:47:32;;;;;;;0.75;0.30;;;20.60;43.80;;;;;;5074111;28;20063;-55
2023/11/08 03:49:58;;;;;;;1.38;0.45;;;20.60;43.80;;;;;;5069748;28;20048;-52
2023/11/08 03:52:24;;;;;;;0.57;0.30;;;20.60;43.90;;;;;;5077431;28;20036;-56
2023/11/08 03:54:51;;;;;;;0.82;0.40;;;20.60;43.90;;;;;;5069103;28;20038;-52
2023/11/08 03:57:18;;;;;;;0.90;0.50;;;20.50;43.80;;;;;;5067808;28;20024;-56
2023/11/08 03:59:43;;;;;;;0.90;0.43;;;20.50;43.80;;;;;;5070052;28;20121;-54
2023/11/08 04:02:09;;;;;;;0.77;0.63;;;20.50;43.90;;;;;;5067625;28;20028;-53
2023/11/08 04:04:35;;;;;;;1.02;0.40;;;20.50;43.90;;;;;;5070063;28;20025;-54
2023/11/08 04:07:01;;;;;;;0.93;0.40;;;20.50;43.90;;;;;;5069989;28;20029;-52
2023/11/08 04:09:27;;;;;;;0.70;0.57;;;20.50;43.90;;;;;;5074181;28;20065;-56
2023/11/08 04:11:55;;;;;;;1.00;0.40;;;20.50;43.90;;;;;;5052832;28;20070;-54
2023/11/08 04:14:21;;;;;;;0.77;0.30;;;20.50;43.90;;;;;;5073305;28;20027;-53
2023/11/08 04:16:47;;;;;;;0.73;0.40;;;20.50;43.90;;;;;;5061321;28;20032;-52
2023/11/08 04:19:13;;;;;;;0.90;0.40;;;20.50;43.90;;;;;;5070322;28;20079;-56
2023/11/08 04:21:39;;;;;;;1.08;0.50;;;20.50;43.90;;;;;;5075819;28;20043;-52
2023/11/08 04:24:05;;;;;;;1.67;0.50;;;20.50;43.90;;;;;;5066955;28;20032;-52
2023/11/08 04:26:32;;;;;;;0.85;0.40;;;20.50;43.90;;;;;;5066423;28;20056;-53
2023/11/08 04:28:58;;;;;;;0.93;0.30;;;20.50;43.90;;;;;;5069675;28;20063;-56
2023/11/08 04:31:24;;;;;;;1.50;0.60;;;20.50;43.90;;;;;;5053458;28;20048;-53
2023/11/08 04:33:53;;;;;;;2.17;0.65;;;20.50;43.90;;;;;;5074571;28;20039;-51
2023/11/08 04:36:19;;;;;;;1.58;0.50;;;20.40;43.90;;;;;;5066898;28;20467;-54
2023/11/08 04:38:45;;;;;;;0.52;0.45;;;20.50;43.90;;;;;;5069187;28;20031;-54
2023/11/08 04:41:14;;;;;;;1.85;0.60;;;20.50;43.90;;;;;;5054192;28;20059;-57
2023/11/08 04:43:43;;;;;;;1.23;0.45;;;20.50;43.90;;;;;;5072502;28;20043;-56
2023/11/08 04:46:11;;;;;;;1.00;0.43;;;20.50;44.00;;;;;;5081969;28;20032;-56
2023/11/08 04:48:37;;;;;;;1.08;0.43;;;20.50;44.00;;;;;;5075014;28;20116;-56
2023/11/08 04:51:04;;;;;;;0.57;0.45;;;20.40;43.90;;;;;;5070047;28;20036;-56
2023/11/08 04:53:30;;;;;;;0.47;0.30;;;20.50;44.00;;;;;;5066462;28;20735;-55
2023/11/08 04:55:56;;;;;;;1.75;0.45;;;20.40;43.90;;;;;;5069136;28;20028;-56
2023/11/08 04:58:22;;;;;;;0.30;0.30;;;20.50;44.00;;;;;;5057246;28;20028;-55
2023/11/08 05:00:47;;;;;;;0.55;0.40;;;20.40;43.90;;;;;;5068486;28;20120;-55
2023/11/08 05:03:13;;;;;;;0.73;0.40;;;20.40;43.90;;;;;;5070782;28;20052;-52
2023/11/08 05:05:39;;;;;;;1.15;0.45;;;20.40;43.90;;;;;;5051308;28;20044;-56
2023/11/08 05:08:05;;;;;;;0.57;0.30;;;20.40;43.90;;;;;;5074936;28;20020;-55
2023/11/08 05:10:31;;;;;;;1.20;0.70;;;20.40;43.90;;;;;;5077045;28;20040;-54
2023/11/08 05:12:57;;;;;;;1.88;0.55;;;20.40;43.90;;;;;;5067281;28;20025;-52
2023/11/08 05:15:23;;;;;;;2.20;0.60;;;20.40;43.90;;;;;;5070034;28;20047;-56
2023/11/08 05:17:49;;;;;;;1.83;0.60;;;20.40;43.90;;;;;;5072440;28;20021;-54
2023/11/08 05:20:15;;;;;;;2.03;0.55;;;20.40;43.90;;;;;;5073371;28;20329;-57
2023/11/08 05:22:42;;;;;;;1.27;0.40;;;20.40;44.00;;;;;;5069390;28;20043;-51
2023/11/08 05:25:08;;;;;;;1.42;0.55;;;20.40;43.90;;;;;;5065437;28;20116;-57
2023/11/08 05:27:35;;;;;;;0.80;0.32;;;20.40;43.90;;;;;;5068643;28;20017;-57
2023/11/08 05:30:04;;;;;;;1.00;0.50;;;20.40;43.90;;;;;;5066128;28;20044;-57
2023/11/08 05:32:30;;;;;;;1.63;0.50;;;20.30;43.80;;;;;;5070361;28;20020;-53
2023/11/08 05:34:56;;;;;;;1.30;0.60;;;20.40;43.90;;;;;;5072295;28;20040;-55
2023/11/08 05:37:22;;;;;;;1.63;0.50;;;20.40;43.90;;;;;;5071255;28;20032;-56
2023/11/08 05:39:48;;;;;;;1.17;0.50;;;20.40;43.90;;;;;;5053804;28;20037;-51
2023/11/08 05:42:15;;;;;;;0.77;0.30;;;20.40;43.90;;;;;;5063876;28;20451;-53
2023/11/08 05:44:43;;;;;;;1.15;0.60;;;20.40;43.90;;;;;;5067068;28;20047;-56
2023/11/08 05:47:09;;;;;;;1.50;0.50;;;20.40;43.80;;;;;;5072866;28;20021;-56
2023/11/08 05:49:35;;;;;;;0.80;0.38;;;20.30;43.80;;;;;;5070059;28;20058;-53
2023/11/08 05:52:01;;;;;;;1.27;0.50;;;20.30;43.80;;;;;;5071508;28;20033;-53
2023/11/08 05:54:28;;;;;;;1.05;0.57;;;20.30;43.80;;;;;;5072231;28;20036;-53
2023/11/08 05:56:53;;;;;;;1.05;0.50;;;20.30;43.80;;;;;;5066293;28;20035;-56
2023/11/08 05:59:19;;;;;;;1.45;0.35;;;20.30;43.80;;;;;;5048128;28;20407;-53
2023/11/08 06:01:45;;;;;;;1.02;0.30;;;20.30;43.70;;;;;;5067603;28;20108;-55
2023/11/08 06:04:12;;;;;;;0.88;0.40;;;20.30;43.70;;;;;;5070347;28;20033;-56
2023/11/08 06:06:38;;;;;;;1.58;0.47;;;20.30;43.70;;;;;;5064912;28;20028;-56
2023/11/08 06:09:06;;;;;;;1.05;0.47;;;20.30;43.70;;;;;;5072995;28;20024;-57
2023/11/08 06:11:32;;;;;;;0.82;0.40;;;20.30;43.70;;;;;;5071582;28;20021;-54
2023/11/08 06:13:58;;;;;;;1.17;0.50;;;20.30;43.70;;;;;;5065601;28;20029;-55
2023/11/08 06:16:23;;;;;;;0.90;0.40;;;20.30;43.70;;;;;;5068978;28;20031;-58
2023/11/08 06:18:49;;;;;;;0.80;0.43;;;20.30;43.70;;;;;;5072466;28;20490;-54
2023/11/08 06:21:15;;;;;;;1.48;0.60;;;20.30;43.70;;;;;;5070198;28;20027;-56
2023/11/08 06:23:43;;;;;;;0.90;0.40;;;20.30;43.70;;;;;;5072127;28;20028;-57
2023/11/08 06:26:16;;;;;;;1.38;0.52;;;20.30;43.70;;;;;;5067834;28;20039;-57
2023/11/08 06:28:43;;;;;;;0.77;0.40;;;20.30;43.70;;;;;;5067619;28;20064;-56
2023/11/08 06:31:09;;;;;;;0.63;0.30;;;20.30;43.70;;;;;;5076053;28;20032;-54
2023/11/08 06:33:37;;;;;;;3.25;0.50;;;20.30;43.60;;;;;;5087939;28;20020;-55
2023/11/08 06:36:04;;;;;;;1.17;0.57;;;20.30;43.60;;;;;;5070568;28;20040;-56
2023/11/08 06:38:30;;;;;;;0.63;0.45;;;20.30;43.60;;;;;;5080963;28;20071;-57
2023/11/08 06:40:56;;;;;;;1.00;0.40;;;20.20;43.60;;;;;;5089440;28;20084;-56
2023/11/08 06:43:22;;;;;;;1.35;0.40;;;20.30;43.60;;;;;;5088933;28;20427;-57
2023/11/08 06:45:49;;;;;;;1.45;0.50;;;20.30;43.60;;;;;;5087453;28;20032;-54
2023/11/08 06:48:15;;;;;;;0.65;0.38;;;20.30;43.60;;;;;;5087050;28;20364;-55
2023/11/08 06:50:43;;;;;;;0.60;0.25;;;20.30;43.60;;;;;;5069237;28;20430;-53
2023/11/08 06:53:10;;;;;;;0.47;0.30;;;20.20;43.50;;;;;;5093684;28;20032;-53
2023/11/08 06:55:36;;;;;;;1.00;0.28;;;20.30;43.60;;;;;;5090907;28;20126;-57
2023/11/08 06:58:07;;;;;;;1.02;0.35;;;20.20;43.50;;;;;;5086651;28;20089;-54
2023/11/08 07:00:37;;;;;;;1.42;0.30;;;20.20;44.10;;;;;;5084969;28;20028;-57
2023/11/08 07:03:04;;;;;;;0.77;0.40;;;20.20;43.50;;;;;;5071678;28;22372;-59
2023/11/08 07:05:31;;;;;;;1.13;0.38;;;20.20;43.50;;;;;;5073957;28;20028;-54
2023/11/08 07:07:57;;;;;;;1.48;0.52;;;20.20;43.40;;;;;;5078886;28;20466;-56
2023/11/08 07:10:23;;;;;;;0.73;0.40;;;20.30;43.50;;;;;;5077220;28;20450;-53
2023/11/08 07:12:49;;;;;;;0.50;0.30;;;20.20;43.40;;;;;;5088578;28;20039;-57
2023/11/08 07:15:15;;;;;;;1.13;0.45;;;20.20;43.40;;;;;;5072237;28;20025;-52
2023/11/08 07:17:41;;;;;;;1.05;0.40;;;20.20;43.40;;;;;;5075117;28;20036;-56
2023/11/08 07:20:08;;;;;;;1.23;0.60;;;20.20;43.40;;;;;;5081179;28;21236;-57
2023/11/08 07:22:35;;;;;;;0.98;0.40;;;20.20;43.30;;;;;;5073572;28;20035;-56
2023/11/08 07:25:01;;;;;;;1.08;0.40;;;20.20;44.00;;;;;;5084428;28;20031;-57
2023/11/08 07:27:27;;;;;;;1.08;0.35;;;20.20;43.30;;;;;;5081675;28;20352;-56
2023/11/08 07:29:53;;;;;;;1.50;0.40;;;20.20;43.40;;;;;;5073107;28;20040;-53
2023/11/08 07:32:20;;;;;;;1.23;0.50;;;20.20;44.00;;;;;;5079560;28;20097;-54
2023/11/08 07:34:45;;;;;;;1.17;0.45;;;20.20;43.30;;;;;;5082001;28;20056;-54
2023/11/08 07:37:13;;;;;;;1.45;0.32;;;20.20;43.40;;;;;;5081501;28;20107;-55
2023/11/08 07:39:40;;;;;;;0.93;0.40;;;20.20;43.40;;;;;;5080192;28;20683;-58
2023/11/08 07:42:07;;;;;;;1.73;0.35;;;20.20;43.50;;;;;;5081125;28;20039;-56
2023/11/08 07:44:34;;;;;;;1.73;0.50;;;20.20;43.40;;;;;;5077210;28;20062;-57
2023/11/08 07:47:00;;;;;;;1.75;0.47;;;20.20;43.40;;;;;;5082990;28;20103;-55
2023/11/08 07:49:27;;;;;;;1.00;0.30;;;20.20;43.40;;;;;;5075697;28;20950;-56
2023/11/08 07:51:53;;;;;;;1.35;0.43;;;20.20;43.40;;;;;;5060055;28;20081;-54
2023/11/08 07:54:19;;;;;;;0.80;0.40;;;20.20;43.40;;;;;;5081882;28;20025;-57
2023/11/08 07:56:45;;;;;;;2.45;0.60;;;20.20;44.00;;;;;;5078138;28;20024;-55
2023/11/08 07:59:12;;;;;;;0.82;0.57;;;20.20;43.40;;;;;;5078468;28;20039;-57
2023/11/08 08:01:38;;;;;;;1.90;0.60;;;20.20;43.40;;;;;;5071244;28;20036;-54
2023/11/08 08:04:05;;;;;;;1.25;0.65;;;20.20;43.40;;;;;;5058152;28;20028;-57
2023/11/08 08:06:32;;;;;;;1.77;0.60;;;20.20;43.30;;;;;;5078049;28;20025;-55
2023/11/08 08:08:58;;;;;;;1.58;0.60;;;20.20;42.80;;;;;;5076754;28;20111;-58
2023/11/08 08:11:25;;;;;;;2.15;0.47;;;20.20;43.30;;;;;;5073234;28;20025;-61
2023/11/08 08:13:52;;;;;;;1.42;0.50;;;20.20;43.30;;;;;;5077676;28;20028;-56
2023/11/08 08:16:19;;;;;;;0.88;0.45;;;20.20;43.20;;;;;;5077406;28;20044;-60
2023/11/08 08:18:48;;;;;;;1.33;0.65;;;20.20;43.30;;;;;;5053525;28;20024;-54
2023/11/08 08:21:14;;;;;;;2.38;0.80;;;20.20;43.20;;;;;;5072603;28;20081;-54
2023/11/08 08:23:40;;;;;;;1.05;0.52;;;20.20;43.20;;;;;;5060385;28;20032;-58
2023/11/08 08:26:07;;;;;;;2.47;0.70;;;20.20;43.20;;;;;;5078736;28;20070;-55
2023/11/08 08:28:35;;;;;;;0.65;0.40;;;20.20;43.20;;;;;;5075014;28;20025;-54
2023/11/08 08:31:04;;;;;;;1.08;0.50;;;20.20;43.20;;;;;;5085740;28;20047;-56
2023/11/08 08:33:30;;;;;;;4.07;1.17;;;20.30;43.30;;;;;;5081336;28;20039;-57
2023/11/08 08:35:58;;;;;;;1.63;0.60;;;20.20;43.30;;;;;;5087833;28;20032;-57
2023/11/08 08:38:24;;;;;;;4.20;0.85;;;20.30;43.30;;;;;;5088606;28;20043;-59
2023/11/08 08:40:50;;;;;;;4.00;0.60;;;20.20;43.30;;;;;;5085537;28;20028;-58
2023/11/08 08:43:20;;;;;;;2.42;0.80;;;20.30;43.30;;;;;;5085399;28;20048;-58
2023/11/08 08:45:47;;;;;;;2.67;0.80;;;20.30;43.30;;;;;;5086487;28;20024;-57
2023/11/08 08:48:13;;;;;;;2.45;0.90;;;20.30;43.30;;;;;;5088573;28;20039;-55
2023/11/08 08:50:39;;;;;;;1.58;0.70;;;20.30;43.30;;;;;;5063848;28;20051;-56
2023/11/08 08:53:05;;;;;;;1.98;0.80;;;20.30;43.20;;;;;;5074045;28;20439;-55
2023/11/08 08:55:31;;;;;;;1.58;0.60;;;20.30;43.20;;;;;;5078544;28;20039;-55
2023/11/08 08:57:57;;;;;;;3.20;0.90;;;20.30;43.20;;;;;;5071915;28;20048;-57
2023/11/08 09:00:23;;;;;;;1.80;0.77;;;20.30;43.20;;;;;;5075470;28;20103;-55
2023/11/08 09:02:49;;;;;;;1.52;0.93;;;20.30;43.10;;;;;;5076647;28;20181;-55
2023/11/08 09:05:20;;;;;;;1.33;0.80;;;20.30;43.10;;;;;;5074381;28;20016;-55
2023/11/08 09:07:47;;;;;;;1.88;0.90;;;20.30;43.10;;;;;;5068737;28;20086;-56
2023/11/08 09:10:13;;;;;;;1.48;0.80;;;20.30;43.10;;;;;;5073397;28;20040;-57
2023/11/08 09:12:39;;;;;;;1.30;0.57;;;20.30;43.10;;;;;;5057149;28;20042;-55
2023/11/08 09:15:05;;;;;;;2.50;0.93;;;20.30;43.20;;;;;;5054230;28;20028;-57
2023/11/08 09:17:32;;;;;;;1.88;0.90;;;20.30;43.10;;;;;;5073820;28;20024;-55
2023/11/08 09:19:57;;;;;;;3.90;0.82;;;20.30;43.20;;;;;;5077647;28;20032;-53
2023/11/08 09:22:23;;;;;;;2.08;0.98;;;20.40;43.20;;;;;;5074097;28;20451;-56
2023/11/08 09:24:49;;;;;;;2.08;0.60;;;20.40;43.20;;;;;;5075209;28;20112;-56
2023/11/08 09:27:15;;;;;;;3.13;1.00;;;20.40;43.20;;;;;;5076815;28;20043;-57
2023/11/08 09:29:41;;;;;;;1.83;0.70;;;20.40;43.30;;;;;;5089260;28;20110;-55
2023/11/08 09:32:07;;;;;;;1.33;0.80;;;20.40;43.30;;;;;;5089730;28;20028;-56
2023/11/08 09:34:34;;;;;;;1.90;0.70;;;20.40;43.30;;;;;;5084366;28;20024;-55
2023/11/08 09:37:00;;;;;;;1.70;0.73;;;20.40;43.30;;;;;;5086435;28;20035;-57
2023/11/08 09:39:30;;;;;;;1.80;1.00;;;20.40;43.30;;;;;;5086406;28;20028;-55
2023/11/08 09:41:57;;;;;;;1.55;0.80;;;20.40;43.30;;;;;;5088002;28;21010;-54
2023/11/08 09:44:27;;;;;;;1.40;0.70;;;20.40;43.20;;;;;;5080273;28;20077;-57
2023/11/08 09:46:54;;;;;;;1.25;0.77;;;20.40;43.20;;;;;;5090636;28;20059;-55
2023/11/08 09:49:24;;;;;;;1.80;0.70;;;20.40;43.20;;;;;;5087659;28;20451;-57
2023/11/08 09:51:52;;;;;;;2.78;1.00;;;20.40;43.20;;;;;;5089729;28;20028;-52
2023/11/08 09:54:18;;;;;;;2.15;1.02;;;20.40;43.20;;;;;;5087549;28;20028;-56
2023/11/08 09:56:45;;;;;;;1.63;0.68;;;20.40;43.10;;;;;;5086564;28;20024;-53
2023/11/08 09:59:15;;;;;;;1.88;1.02;;;20.40;43.10;;;;;;5086639;28;20056;-54
2023/11/08 10:01:44;;;;;;;2.17;0.98;;;20.40;43.10;;;;;;5089357;28;20107;-54
2023/11/08 10:04:15;;;;;;;2.17;0.88;;;20.50;43.20;;;;;;5087547;28;20086;-52
2023/11/08 10:06:42;;;;;;;1.38;0.73;;;20.50;43.10;;;;;;5089037;28;20043;-53
2023/11/08 10:09:08;;;;;;;1.35;0.77;;;20.40;43.10;;;;;;5082574;28;20019;-53
2023/11/08 10:11:42;;;;;;;1.20;0.60;;;20.40;43.10;;;;;;5087345;28;20024;-56
2023/11/08 10:14:08;;;;;;;2.33;0.77;;;20.50;43.10;;;;;;5088208;28;20106;-56
2023/11/08 10:16:45;;;;;;;1.08;0.60;;;20.40;43.10;;;;;;5082637;28;20063;-56
2023/11/08 10:19:12;;;;;;;1.75;0.90;;;20.50;43.10;;;;;;5064447;28;20113;-55
2023/11/08 10:21:38;;;;;;;1.23;0.60;;;20.40;43.10;;;;;;5085595;28;20034;-54
2023/11/08 10:24:13;;;;;;;2.17;0.77;;;20.50;43.10;;;;;;5089323;28;20477;-57
2023/11/08 10:26:39;;;;;;;2.40;0.60;;;20.50;43.10;;;;;;5088676;28;20042;-55
2023/11/08 10:29:07;;;;;;;1.58;0.80;;;20.50;43.10;;;;;;5087231;28;20052;-54
2023/11/08 10:31:37;;;;;;;2.15;0.90;;;20.50;43.10;;;;;;5078737;28;20040;-57
2023/11/08 10:34:05;;;;;;;2.17;0.70;;;20.50;43.00;;;;;;5072142;28;20124;-57
2023/11/08 10:36:32;;;;;;;2.22;0.70;;;20.50;43.10;;;;;;5072581;28;20057;-53
2023/11/08 10:38:58;;;;;;;1.95;0.52;;;20.50;43.00;;;;;;5075632;28;20029;-56
2023/11/08 10:41:24;;;;;;;0.75;0.50;;;20.50;43.00;;;;;;5073447;28;20123;-57
2023/11/08 10:44:22;;;;;;;1.23;0.50;;;20.50;43.00;;;;;;5072921;28;20510;-53
2023/11/08 10:46:58;;;;;;;1.45;0.65;;;20.50;42.80;;;;;;5086652;28;20047;-53
2023/11/08 10:49:24;;;;;;;1.92;0.80;;;20.50;42.80;;;;;;5086948;28;20048;-56
2023/11/08 10:51:52;;;;;;;2.42;0.90;;;20.50;42.80;;;;;;5070187;28;20043;-55
2023/11/08 10:54:18;;;;;;;1.92;1.17;;;20.50;42.70;;;;;;5086631;28;20051;-53
2023/11/08 10:56:47;;;;;;;1.08;0.50;;;20.50;42.70;;;;;;5081905;28;20020;-53
2023/11/08 10:59:15;;;;;;;1.20;0.70;;;20.50;42.60;;;;;;5088282;28;20039;-55
2023/11/08 11:01:42;;;;;;;2.63;0.73;;;20.50;42.60;;;;;;5082224;28;20032;-58
2023/11/08 11:04:11;;;;;;;2.63;1.08;;;20.50;42.70;;;;;;5083539;28;20057;-55
2023/11/08 11:06:39;;;;;;;1.92;0.73;;;20.50;42.70;;;;;;5085463;28;20036;-57
2023/11/08 11:09:13;;;;;;;1.77;0.50;;;20.60;42.80;;;;;;5065426;28;20028;-55
2023/11/08 11:11:50;;;;;;;1.42;0.80;;;20.60;42.90;;;;;;5079899;28;20036;-58
2023/11/08 11:14:26;;;;;;;1.55;0.70;;;20.60;42.90;;;;;;5089108;28;20031;-58
2023/11/08 11:17:22;;;;;;;2.08;0.65;;;20.60;42.90;;;;;;5083927;28;20106;-61
2023/11/08 11:19:50;;;;;;;2.65;1.10;;;20.60;42.80;;;;;;5074837;28;20054;-58
2023/11/08 11:22:18;;;;;;;3.03;0.60;;;20.60;42.80;;;;;;5083785;28;20036;-56
2023/11/08 11:24:46;;;;;;;3.28;1.00;;;20.60;42.70;;;;;;5089101;28;20073;-59
2023/11/08 11:27:40;;;;;;;1.60;0.70;;;20.60;42.60;;;;;;5079811;28;20107;-57
2023/11/08 11:30:18;;;;;;;1.63;0.68;;;20.60;42.50;;;;;;5070139;28;20048;-58
2023/11/08 11:32:47;;;;;;;3.97;1.00;;;20.70;42.50;;;;;;5087196;28;20032;-53
2023/11/08 11:35:17;;;;;;;4.07;0.90;;;20.70;42.50;;;;;;5085890;28;20059;-56
2023/11/08 11:38:06;;;;;;;2.35;1.00;;;20.60;42.50;;;;;;5083967;28;20035;-53
2023/11/08 11:40:36;;;;;;;2.75;1.10;;;20.60;42.50;;;;;;5088392;28;20339;-55
2023/11/08 11:43:02;;;;;;;1.88;0.65;;;20.70;42.60;;;;;;5091024;28;20029;-58
2023/11/08 11:45:32;;;;;;;1.90;0.75;;;20.60;42.50;;;;;;5092085;28;20052;-55
2023/11/08 11:47:59;;;;;;;1.75;0.68;;;20.60;42.40;;;;;;5088157;28;20454;-53
2023/11/08 11:50:25;;;;;;;4.78;0.80;;;20.60;42.40;;;;;;5090580;28;20032;-55
2023/11/08 11:52:51;;;;;;;1.80;0.85;;;20.70;42.40;;;;;;5088301;28;20433;-55
2023/11/08 11:55:19;;;;;;;3.58;0.70;;;20.60;42.20;;;;;;5089629;28;20017;-56
2023/11/08 11:57:46;;;;;;;2.28;0.80;;;20.70;42.30;;;;;;5088264;28;20359;-57
2023/11/08 12:00:13;;;;;;;1.75;0.63;;;20.70;42.30;;;;;;5084803;28;20162;-58
2023/11/08 12:02:39;;;;;;;2.25;0.60;;;20.70;42.90;;;;;;5087196;28;20518;-54
2023/11/08 12:05:06;;;;;;;1.48;0.65;;;20.70;42.20;;;;;;5087308;28;20039;-55
2023/11/08 12:07:33;;;;;;;1.25;0.68;;;20.60;42.10;;;;;;5068889;28;20089;-54
2023/11/08 12:10:10;;;;;;;1.83;0.82;;;20.70;42.20;;;;;;5086779;28;20040;-53
2023/11/08 12:12:39;;;;;;;0.93;0.50;;;20.70;42.20;;;;;;5088692;28;20028;-56
2023/11/08 12:15:18;;;;;;;1.35;0.57;;;20.70;42.30;;;;;;5076268;28;20662;-57
2023/11/08 12:17:50;;;;;;;2.13;0.63;;;20.70;42.40;;;;;;5066864;28;20040;-56
2023/11/08 12:20:26;;;;;;;1.60;0.57;;;20.70;42.50;;;;;;5059022;28;20046;-57
2023/11/08 12:22:53;;;;;;;2.08;0.70;;;20.70;42.60;;;;;;5074643;28;20039;-58
2023/11/08 12:25:32;;;;;;;1.25;0.50;;;20.70;42.60;;;;;;5081247;28;20040;-54
2023/11/08 12:28:00;;;;;;;0.40;0.38;;;20.80;42.60;;;;;;5087839;28;20024;-51
2023/11/08 12:30:28;;;;;;;2.10;0.90;;;20.80;42.60;;;;;;5076709;28;20044;-55
2023/11/08 12:32:58;;;;;;;1.10;0.73;;;20.90;42.60;;;;;;5073543;28;20043;-52
2023/11/08 12:35:25;;;;;;;1.27;0.50;;;20.90;42.50;;;;;;5074324;28;20044;-54
2023/11/08 12:37:59;;;;;;;1.10;0.50;;;20.90;42.40;;;;;;5074462;28;20033;-56
2023/11/08 12:40:25;;;;;;;0.77;0.40;;;21.00;42.30;;;;;;5072970;28;20067;-57
2023/11/08 12:42:51;;;;;;;1.58;0.55;;;21.00;42.20;;;;;;5079900;28;20044;-56
2023/11/08 12:45:33;;;;;;;1.52;0.65;;;21.00;42.10;;;;;;5077981;28;20048;-52
2023/11/08 12:48:07;;;;;;;2.10;0.70;;;21.10;41.90;;;;;;5075013;28;20021;-55
2023/11/08 12:50:47;;;;;;;1.95;0.70;;;21.10;41.90;;;;;;5072968;28;20071;-60